sensor_id;sensor_type;location;lat;lon;timestamp;temperature;humidity
2042;DHT22;1026;51.460;7.252;2024-01-11T00:01:53;-2.80;93.60
2042;DHT22;1026;51.460;7.252;2024-01-11T00:04:26;-2.70;93.70
2042;DHT22;1026;51.460;7.252;2024-01-11T00:06:53;-2.80;93.60
2042;DHT22;1026;51.460;7.252;2024-01-11T00:09:27;-2.80;93.60
2042;DHT22;1026;51.460;7.252;2024-01-11T00:11:53;-2.80;93.60
2042;DHT22;1026;51.460;7.252;2024-01-11T00:14:20;-2.80;93.60
2042;DHT22;1026;51.460;7.252;2024-01-11T00:17:01;-2.80;93.60
2042;DHT22;1026;51.460;7.252;2024-01-11T00:19:28;-2.80;93.60
2042;DHT22;1026;51.460;7.252;2024-01-11T00:22:09;-2.80;93.60
2042;DHT22;1026;51.460;7.252;2024-01-11T00:24:50;-2.80;93.90
2042;DHT22;1026;51.460;7.252;2024-01-11T00:27:23;-2.80;93.60
2042;DHT22;1026;51.460;7.252;2024-01-11T00:29:50;-2.80;93.60
2042;DHT22;1026;51.460;7.252;2024-01-11T00:32:17;-2.80;93.60
2042;DHT22;1026;51.460;7.252;2024-01-11T00:34:51;-2.80;93.60
2042;DHT22;1026;51.460;7.252;2024-01-11T00:37:17;-2.80;93.60
2042;DHT22;1026;51.460;7.252;2024-01-11T00:39:51;-2.80;93.60
2042;DHT22;1026;51.460;7.252;2024-01-11T00:42:18;-2.80;93.60
2042;DHT22;1026;51.460;7.252;2024-01-11T00:44:45;-2.80;93.60
2042;DHT22;1026;51.460;7.252;2024-01-11T00:47:18;-2.80;93.60
2042;DHT22;1026;51.460;7.252;2024-01-11T00:49:45;-2.80;93.60
2042;DHT22;1026;51.460;7.252;2024-01-11T00:52:12;-2.80;93.60
2042;DHT22;1026;51.460;7.252;2024-01-11T00:54:47;-2.80;93.50
2042;DHT22;1026;51.460;7.252;2024-01-11T00:57:13;-2.80;93.50
2042;DHT22;1026;51.460;7.252;2024-01-11T00:59:40;-2.90;93.50
2042;DHT22;1026;51.460;7.252;2024-01-11T01:02:14;-2.90;93.50
2042;DHT22;1026;51.460;7.252;2024-01-11T01:04:48;-2.90;93.50
2042;DHT22;1026;51.460;7.252;2024-01-11T01:07:14;-2.90;93.50
2042;DHT22;1026;51.460;7.252;2024-01-11T01:09:41;-2.90;93.50
2042;DHT22;1026;51.460;7.252;2024-01-11T01:12:14;-2.90;93.50
2042;DHT22;1026;51.460;7.252;2024-01-11T01:14:41;-2.90;93.50
2042;DHT22;1026;51.460;7.252;2024-01-11T01:17:08;-2.90;93.50
2042;DHT22;1026;51.460;7.252;2024-01-11T01:19:43;-2.90;93.50
2042;DHT22;1026;51.460;7.252;2024-01-11T01:22:24;-2.90;93.50
2042;DHT22;1026;51.460;7.252;2024-01-11T01:24:57;-2.90;93.50
2042;DHT22;1026;51.460;7.252;2024-01-11T01:27:30;-2.90;93.50
2042;DHT22;1026;51.460;7.252;2024-01-11T01:29:58;-2.90;93.50
2042;DHT22;1026;51.460;7.252;2024-01-11T01:32:31;-2.90;93.50
2042;DHT22;1026;51.460;7.252;2024-01-11T01:34:59;-2.90;93.50
2042;DHT22;1026;51.460;7.252;2024-01-11T01:37:26;-2.90;93.50
2042;DHT22;1026;51.460;7.252;2024-01-11T01:40:00;-2.90;93.50
2042;DHT22;1026;51.460;7.252;2024-01-11T01:42:26;-2.90;93.50
2042;DHT22;1026;51.460;7.252;2024-01-11T01:45:00;-2.90;93.50
2042;DHT22;1026;51.460;7.252;2024-01-11T01:47:27;-2.90;93.50
2042;DHT22;1026;51.460;7.252;2024-01-11T01:49:55;-2.90;93.50
2042;DHT22;1026;51.460;7.252;2024-01-11T01:52:29;-2.90;93.50
2042;DHT22;1026;51.460;7.252;2024-01-11T01:54:57;-3.00;93.40
2042;DHT22;1026;51.460;7.252;2024-01-11T01:57:33;-2.90;93.50
2042;DHT22;1026;51.460;7.252;2024-01-11T02:00:11;-2.90;93.40
2042;DHT22;1026;51.460;7.252;2024-01-11T02:02:45;-3.00;93.40
2042;DHT22;1026;51.460;7.252;2024-01-11T02:05:24;-3.00;93.40
2042;DHT22;1026;51.460;7.252;2024-01-11T02:07:51;-3.00;93.40
2042;DHT22;1026;51.460;7.252;2024-01-11T02:10:19;-3.00;93.40
2042;DHT22;1026;51.460;7.252;2024-01-11T02:12:52;-3.00;93.40
2042;DHT22;1026;51.460;7.252;2024-01-11T02:15:20;-3.00;93.40
2042;DHT22;1026;51.460;7.252;2024-01-11T02:17:54;-3.00;93.40
2042;DHT22;1026;51.460;7.252;2024-01-11T02:20:21;-3.00;93.40
2042;DHT22;1026;51.460;7.252;2024-01-11T02:23:05;-3.00;93.40
2042;DHT22;1026;51.460;7.252;2024-01-11T02:25:34;-3.00;93.40
2042;DHT22;1026;51.460;7.252;2024-01-11T02:28:09;-3.00;93.40
2042;DHT22;1026;51.460;7.252;2024-01-11T02:30:43;-3.00;93.40
2042;DHT22;1026;51.460;7.252;2024-01-11T02:33:10;-3.00;93.30
2042;DHT22;1026;51.460;7.252;2024-01-11T02:35:39;-3.00;93.30
2042;DHT22;1026;51.460;7.252;2024-01-11T02:38:15;-3.10;93.30
2042;DHT22;1026;51.460;7.252;2024-01-11T02:40:44;-3.00;93.30
2042;DHT22;1026;51.460;7.252;2024-01-11T02:43:17;-3.10;93.30
2042;DHT22;1026;51.460;7.252;2024-01-11T02:45:44;-3.00;93.30
2042;DHT22;1026;51.460;7.252;2024-01-11T02:48:11;-3.10;93.30
2042;DHT22;1026;51.460;7.252;2024-01-11T02:51:05;-3.10;93.30
2042;DHT22;1026;51.460;7.252;2024-01-11T02:53:38;-3.10;93.30
2042;DHT22;1026;51.460;7.252;2024-01-11T02:56:05;-3.10;93.30
2042;DHT22;1026;51.460;7.252;2024-01-11T02:58:32;-3.10;93.30
2042;DHT22;1026;51.460;7.252;2024-01-11T03:01:05;-3.10;93.20
2042;DHT22;1026;51.460;7.252;2024-01-11T03:03:33;-3.10;93.30
2042;DHT22;1026;51.460;7.252;2024-01-11T03:06:00;-3.10;93.30
2042;DHT22;1026;51.460;7.252;2024-01-11T03:08:34;-3.10;93.30
2042;DHT22;1026;51.460;7.252;2024-01-11T03:11:01;-3.10;93.30
2042;DHT22;1026;51.460;7.252;2024-01-11T03:13:34;-3.10;93.30
2042;DHT22;1026;51.460;7.252;2024-01-11T03:16:01;-3.10;93.20
2042;DHT22;1026;51.460;7.252;2024-01-11T03:18:43;-3.10;93.20
2042;DHT22;1026;51.460;7.252;2024-01-11T03:21:23;-3.20;93.20
2042;DHT22;1026;51.460;7.252;2024-01-11T03:23:57;-3.10;93.20
2042;DHT22;1026;51.460;7.252;2024-01-11T03:26:36;-3.20;93.20
2042;DHT22;1026;51.460;7.252;2024-01-11T03:29:10;-3.10;93.20
2042;DHT22;1026;51.460;7.252;2024-01-11T03:31:44;-3.20;93.20
2042;DHT22;1026;51.460;7.252;2024-01-11T03:34:17;-3.20;93.20
2042;DHT22;1026;51.460;7.252;2024-01-11T03:36:51;-3.20;93.20
2042;DHT22;1026;51.460;7.252;2024-01-11T03:39:18;-3.20;93.10
2042;DHT22;1026;51.460;7.252;2024-01-11T03:41:45;-3.20;93.20
2042;DHT22;1026;51.460;7.252;2024-01-11T03:44:19;-3.20;93.20
2042;DHT22;1026;51.460;7.252;2024-01-11T03:46:45;-3.20;93.20
2042;DHT22;1026;51.460;7.252;2024-01-11T03:49:20;-3.20;93.10
2042;DHT22;1026;51.460;7.252;2024-01-11T03:51:53;-3.20;93.10
2042;DHT22;1026;51.460;7.252;2024-01-11T03:54:20;-3.20;93.10
2042;DHT22;1026;51.460;7.252;2024-01-11T03:56:53;-3.20;93.10
2042;DHT22;1026;51.460;7.252;2024-01-11T03:59:26;-3.20;93.10
2042;DHT22;1026;51.460;7.252;2024-01-11T04:01:53;-3.20;93.10
2042;DHT22;1026;51.460;7.252;2024-01-11T04:04:27;-3.30;93.10
2042;DHT22;1026;51.460;7.252;2024-01-11T04:06:54;-3.30;93.10
2042;DHT22;1026;51.460;7.252;2024-01-11T04:09:20;-3.30;93.00
2042;DHT22;1026;51.460;7.252;2024-01-11T04:11:54;-3.30;93.00
2042;DHT22;1026;51.460;7.252;2024-01-11T04:14:21;-3.30;93.00
2042;DHT22;1026;51.460;7.252;2024-01-11T04:16:48;-3.30;93.00
2042;DHT22;1026;51.460;7.252;2024-01-11T04:19:22;-3.30;93.00
2042;DHT22;1026;51.460;7.252;2024-01-11T04:21:56;-3.30;93.10
2042;DHT22;1026;51.460;7.252;2024-01-11T04:24:23;-3.30;93.10
2042;DHT22;1026;51.460;7.252;2024-01-11T04:27:04;-3.30;93.00
2042;DHT22;1026;51.460;7.252;2024-01-11T04:29:30;-3.30;93.00
2042;DHT22;1026;51.460;7.252;2024-01-11T04:32:04;-3.30;93.00
2042;DHT22;1026;51.460;7.252;2024-01-11T04:34:31;-3.30;93.00
2042;DHT22;1026;51.460;7.252;2024-01-11T04:36:58;-3.30;93.00
2042;DHT22;1026;51.460;7.252;2024-01-11T04:39:32;-3.30;93.00
2042;DHT22;1026;51.460;7.252;2024-01-11T04:41:59;-3.30;93.00
2042;DHT22;1026;51.460;7.252;2024-01-11T04:44:33;-3.30;93.00
2042;DHT22;1026;51.460;7.252;2024-01-11T04:47:07;-3.40;93.00
2042;DHT22;1026;51.460;7.252;2024-01-11T04:49:35;-3.40;93.00
2042;DHT22;1026;51.460;7.252;2024-01-11T04:52:02;-3.40;93.00
2042;DHT22;1026;51.460;7.252;2024-01-11T04:54:35;-3.40;92.90
2042;DHT22;1026;51.460;7.252;2024-01-11T04:57:03;-3.40;92.90
2042;DHT22;1026;51.460;7.252;2024-01-11T04:59:30;-3.40;92.90
2042;DHT22;1026;51.460;7.252;2024-01-11T05:02:04;-3.40;92.90
2042;DHT22;1026;51.460;7.252;2024-01-11T05:04:37;-3.40;92.90
2042;DHT22;1026;51.460;7.252;2024-01-11T05:07:04;-3.40;92.90
2042;DHT22;1026;51.460;7.252;2024-01-11T05:09:37;-3.40;92.90
2042;DHT22;1026;51.460;7.252;2024-01-11T05:12:04;-3.30;92.90
2042;DHT22;1026;51.460;7.252;2024-01-11T05:14:32;-3.40;92.90
2042;DHT22;1026;51.460;7.252;2024-01-11T05:17:06;-3.40;92.90
2042;DHT22;1026;51.460;7.252;2024-01-11T05:19:33;-3.40;92.90
2042;DHT22;1026;51.460;7.252;2024-01-11T05:22:07;-3.40;92.90
2042;DHT22;1026;51.460;7.252;2024-01-11T05:24:40;-3.40;92.90
2042;DHT22;1026;51.460;7.252;2024-01-11T05:27:14;-3.50;92.90
2042;DHT22;1026;51.460;7.252;2024-01-11T05:29:48;-3.50;92.90
2042;DHT22;1026;51.460;7.252;2024-01-11T05:32:20;-3.50;92.90
2042;DHT22;1026;51.460;7.252;2024-01-11T05:34:47;-3.40;92.90
2042;DHT22;1026;51.460;7.252;2024-01-11T05:37:14;-3.40;92.90
2042;DHT22;1026;51.460;7.252;2024-01-11T05:39:47;-3.50;92.80
2042;DHT22;1026;51.460;7.252;2024-01-11T05:42:14;-3.50;92.80
2042;DHT22;1026;51.460;7.252;2024-01-11T05:44:48;-3.50;92.80
2042;DHT22;1026;51.460;7.252;2024-01-11T05:47:20;-3.50;92.80
2042;DHT22;1026;51.460;7.252;2024-01-11T05:49:48;-3.50;92.80
2042;DHT22;1026;51.460;7.252;2024-01-11T05:52:22;-3.50;92.80
2042;DHT22;1026;51.460;7.252;2024-01-11T05:54:49;-3.50;92.80
2042;DHT22;1026;51.460;7.252;2024-01-11T05:57:22;-3.50;92.80
2042;DHT22;1026;51.460;7.252;2024-01-11T05:59:49;-3.50;93.10
2042;DHT22;1026;51.460;7.252;2024-01-11T06:02:16;-3.50;92.80
2042;DHT22;1026;51.460;7.252;2024-01-11T06:04:50;-3.50;92.80
2042;DHT22;1026;51.460;7.252;2024-01-11T06:07:23;-3.50;92.80
2042;DHT22;1026;51.460;7.252;2024-01-11T06:09:57;-3.50;92.80
2042;DHT22;1026;51.460;7.252;2024-01-11T06:12:24;-3.50;92.80
2042;DHT22;1026;51.460;7.252;2024-01-11T06:14:51;-3.60;92.70
2042;DHT22;1026;51.460;7.252;2024-01-11T06:17:24;-3.50;92.80
2042;DHT22;1026;51.460;7.252;2024-01-11T06:19:51;-3.60;92.70
2042;DHT22;1026;51.460;7.252;2024-01-11T06:22:18;-3.50;92.80
2042;DHT22;1026;51.460;7.252;2024-01-11T06:24:58;-3.50;92.70
2042;DHT22;1026;51.460;7.252;2024-01-11T06:27:26;-3.60;92.70
2042;DHT22;1026;51.460;7.252;2024-01-11T06:30:00;-3.50;92.70
2042;DHT22;1026;51.460;7.252;2024-01-11T06:32:33;-3.60;92.70
2042;DHT22;1026;51.460;7.252;2024-01-11T06:35:00;-3.60;92.70
2042;DHT22;1026;51.460;7.252;2024-01-11T06:37:27;-3.60;92.70
2042;DHT22;1026;51.460;7.252;2024-01-11T06:40:01;-3.60;92.70
2042;DHT22;1026;51.460;7.252;2024-01-11T06:42:28;-3.60;92.60
2042;DHT22;1026;51.460;7.252;2024-01-11T06:45:01;-3.60;92.60
2042;DHT22;1026;51.460;7.252;2024-01-11T06:47:27;-3.60;92.60
2042;DHT22;1026;51.460;7.252;2024-01-11T06:49:55;-3.60;92.60
2042;DHT22;1026;51.460;7.252;2024-01-11T06:52:29;-3.60;92.60
2042;DHT22;1026;51.460;7.252;2024-01-11T06:54:56;-3.60;92.60
2042;DHT22;1026;51.460;7.252;2024-01-11T06:57:22;-3.60;92.60
2042;DHT22;1026;51.460;7.252;2024-01-11T06:59:56;-3.60;92.70
2042;DHT22;1026;51.460;7.252;2024-01-11T07:02:23;-3.60;92.60
2042;DHT22;1026;51.460;7.252;2024-01-11T07:04:57;-3.60;92.60
2042;DHT22;1026;51.460;7.252;2024-01-11T07:07:24;-3.60;92.60
2042;DHT22;1026;51.460;7.252;2024-01-11T07:09:58;-3.60;92.60
2042;DHT22;1026;51.460;7.252;2024-01-11T07:12:25;-3.60;92.60
2042;DHT22;1026;51.460;7.252;2024-01-11T07:14:59;-3.60;92.60
2042;DHT22;1026;51.460;7.252;2024-01-11T07:17:26;-3.60;92.60
2042;DHT22;1026;51.460;7.252;2024-01-11T07:20:00;-3.60;92.60
2042;DHT22;1026;51.460;7.252;2024-01-11T07:22:27;-3.60;92.60
2042;DHT22;1026;51.460;7.252;2024-01-11T07:25:14;-3.70;92.60
2042;DHT22;1026;51.460;7.252;2024-01-11T07:27:48;-3.70;92.60
2042;DHT22;1026;51.460;7.252;2024-01-11T07:30:15;-3.60;92.60
2042;DHT22;1026;51.460;7.252;2024-01-11T07:32:49;-3.70;92.60
2042;DHT22;1026;51.460;7.252;2024-01-11T07:35:16;-3.70;92.60
2042;DHT22;1026;51.460;7.252;2024-01-11T07:37:45;-3.70;92.60
2042;DHT22;1026;51.460;7.252;2024-01-11T07:40:18;-3.70;92.60
2042;DHT22;1026;51.460;7.252;2024-01-11T07:42:45;-3.70;92.60
2042;DHT22;1026;51.460;7.252;2024-01-11T07:45:19;-3.70;92.60
2042;DHT22;1026;51.460;7.252;2024-01-11T07:47:46;-3.70;92.60
2042;DHT22;1026;51.460;7.252;2024-01-11T07:50:20;-3.70;92.60
2042;DHT22;1026;51.460;7.252;2024-01-11T07:52:47;-3.70;92.60
2042;DHT22;1026;51.460;7.252;2024-01-11T07:55:21;-3.70;92.60
2042;DHT22;1026;51.460;7.252;2024-01-11T07:57:57;-3.70;92.60
2042;DHT22;1026;51.460;7.252;2024-01-11T08:00:23;-3.70;92.60
2042;DHT22;1026;51.460;7.252;2024-01-11T08:02:57;-3.70;92.60
2042;DHT22;1026;51.460;7.252;2024-01-11T08:05:30;-3.70;92.60
2042;DHT22;1026;51.460;7.252;2024-01-11T08:07:57;-3.70;92.50
2042;DHT22;1026;51.460;7.252;2024-01-11T08:10:35;-3.70;92.60
2042;DHT22;1026;51.460;7.252;2024-01-11T08:13:02;-3.70;92.50
2042;DHT22;1026;51.460;7.252;2024-01-11T08:15:30;-3.70;92.60
2042;DHT22;1026;51.460;7.252;2024-01-11T08:18:04;-3.70;92.60
2042;DHT22;1026;51.460;7.252;2024-01-11T08:20:31;-3.70;92.60
2042;DHT22;1026;51.460;7.252;2024-01-11T08:23:05;-3.70;92.60
2042;DHT22;1026;51.460;7.252;2024-01-11T08:25:44;-3.70;92.60
2042;DHT22;1026;51.460;7.252;2024-01-11T08:28:18;-3.70;92.60
2042;DHT22;1026;51.460;7.252;2024-01-11T08:30:45;-3.70;92.60
2042;DHT22;1026;51.460;7.252;2024-01-11T08:33:12;-3.70;92.60
2042;DHT22;1026;51.460;7.252;2024-01-11T08:35:47;-3.70;92.60
2042;DHT22;1026;51.460;7.252;2024-01-11T08:38:14;-3.70;92.60
2042;DHT22;1026;51.460;7.252;2024-01-11T08:40:48;-3.70;92.60
2042;DHT22;1026;51.460;7.252;2024-01-11T08:43:15;-3.70;92.50
2042;DHT22;1026;51.460;7.252;2024-01-11T08:45:42;-3.70;92.60
2042;DHT22;1026;51.460;7.252;2024-01-11T08:48:17;-3.70;92.60
2042;DHT22;1026;51.460;7.252;2024-01-11T08:50:49;-3.70;92.50
2042;DHT22;1026;51.460;7.252;2024-01-11T08:53:16;-3.70;92.60
2042;DHT22;1026;51.460;7.252;2024-01-11T08:55:49;-3.80;92.50
2042;DHT22;1026;51.460;7.252;2024-01-11T08:58:16;-3.80;92.50
2042;DHT22;1026;51.460;7.252;2024-01-11T09:00:50;-3.70;92.60
2042;DHT22;1026;51.460;7.252;2024-01-11T09:03:17;-3.70;92.60
2042;DHT22;1026;51.460;7.252;2024-01-11T09:05:44;-3.70;92.60
2042;DHT22;1026;51.460;7.252;2024-01-11T09:08:18;-3.80;92.60
2042;DHT22;1026;51.460;7.252;2024-01-11T09:10:45;-3.70;92.60
2042;DHT22;1026;51.460;7.252;2024-01-11T09:13:12;-3.70;92.60
2042;DHT22;1026;51.460;7.252;2024-01-11T09:15:53;-3.70;92.60
2042;DHT22;1026;51.460;7.252;2024-01-11T09:18:20;-3.70;92.60
2042;DHT22;1026;51.460;7.252;2024-01-11T09:20:54;-3.70;92.60
2042;DHT22;1026;51.460;7.252;2024-01-11T09:23:22;-3.70;92.60
2042;DHT22;1026;51.460;7.252;2024-01-11T09:26:09;-3.70;92.60
2042;DHT22;1026;51.460;7.252;2024-01-11T09:28:37;-3.70;92.60
2042;DHT22;1026;51.460;7.252;2024-01-11T09:31:10;-3.70;92.60
2042;DHT22;1026;51.460;7.252;2024-01-11T09:33:37;-3.70;92.60
2042;DHT22;1026;51.460;7.252;2024-01-11T09:36:05;-3.70;92.60
2042;DHT22;1026;51.460;7.252;2024-01-11T09:38:39;-3.70;92.70
2042;DHT22;1026;51.460;7.252;2024-01-11T09:41:12;-3.70;92.60
2042;DHT22;1026;51.460;7.252;2024-01-11T09:43:48;-3.70;92.70
2042;DHT22;1026;51.460;7.252;2024-01-11T09:46:23;-3.70;92.70
2042;DHT22;1026;51.460;7.252;2024-01-11T09:48:50;-3.70;92.70
2042;DHT22;1026;51.460;7.252;2024-01-11T09:51:19;-3.70;92.70
2042;DHT22;1026;51.460;7.252;2024-01-11T09:53:55;-3.70;92.70
2042;DHT22;1026;51.460;7.252;2024-01-11T09:56:29;-3.70;92.70
2042;DHT22;1026;51.460;7.252;2024-01-11T09:58:56;-3.70;92.70
2042;DHT22;1026;51.460;7.252;2024-01-11T10:01:29;-3.70;92.70
2042;DHT22;1026;51.460;7.252;2024-01-11T10:03:56;-3.70;92.70
2042;DHT22;1026;51.460;7.252;2024-01-11T10:06:24;-3.70;92.70
2042;DHT22;1026;51.460;7.252;2024-01-11T10:08:59;-3.70;93.00
2042;DHT22;1026;51.460;7.252;2024-01-11T10:11:26;-3.70;92.70
2042;DHT22;1026;51.460;7.252;2024-01-11T10:14:00;-3.70;92.70
2042;DHT22;1026;51.460;7.252;2024-01-11T10:16:28;-3.60;92.80
2042;DHT22;1026;51.460;7.252;2024-01-11T10:18:56;-3.60;92.80
2042;DHT22;1026;51.460;7.252;2024-01-11T10:21:30;-3.70;92.70
2042;DHT22;1026;51.460;7.252;2024-01-11T10:24:18;-3.60;92.80
2042;DHT22;1026;51.460;7.252;2024-01-11T10:26:57;-3.60;92.80
2042;DHT22;1026;51.460;7.252;2024-01-11T10:29:31;-3.60;92.80
2042;DHT22;1026;51.460;7.252;2024-01-11T10:32:04;-3.60;92.80
2042;DHT22;1026;51.460;7.252;2024-01-11T10:34:32;-3.60;92.80
2042;DHT22;1026;51.460;7.252;2024-01-11T10:37:00;-3.60;92.80
2042;DHT22;1026;51.460;7.252;2024-01-11T10:39:34;-3.60;92.80
2042;DHT22;1026;51.460;7.252;2024-01-11T10:42:06;-3.60;92.80
2042;DHT22;1026;51.460;7.252;2024-01-11T10:44:35;-3.60;92.80
2042;DHT22;1026;51.460;7.252;2024-01-11T10:47:09;-3.60;92.80
2042;DHT22;1026;51.460;7.252;2024-01-11T10:49:39;-3.60;92.80
2042;DHT22;1026;51.460;7.252;2024-01-11T10:52:14;-3.60;92.80
2042;DHT22;1026;51.460;7.252;2024-01-11T10:54:49;-3.60;92.80
2042;DHT22;1026;51.460;7.252;2024-01-11T10:57:23;-3.60;92.80
2042;DHT22;1026;51.460;7.252;2024-01-11T10:59:57;-3.60;92.80
2042;DHT22;1026;51.460;7.252;2024-01-11T11:02:26;-3.50;92.90
2042;DHT22;1026;51.460;7.252;2024-01-11T11:04:54;-3.60;92.80
2042;DHT22;1026;51.460;7.252;2024-01-11T11:07:30;-3.50;92.90
2042;DHT22;1026;51.460;7.252;2024-01-11T11:09:58;-3.50;92.90
2042;DHT22;1026;51.460;7.252;2024-01-11T11:12:25;-3.50;92.90
2042;DHT22;1026;51.460;7.252;2024-01-11T11:14:59;-3.50;92.90
2042;DHT22;1026;51.460;7.252;2024-01-11T11:17:28;-3.50;93.00
2042;DHT22;1026;51.460;7.252;2024-01-11T11:20:02;-3.50;93.00
2042;DHT22;1026;51.460;7.252;2024-01-11T11:22:34;-3.50;93.00
2042;DHT22;1026;51.460;7.252;2024-01-11T11:25:08;-3.50;93.00
2042;DHT22;1026;51.460;7.252;2024-01-11T11:27:49;-3.50;93.00
2042;DHT22;1026;51.460;7.252;2024-01-11T11:30:19;-3.50;93.00
2042;DHT22;1026;51.460;7.252;2024-01-11T11:32:54;-3.50;93.00
2042;DHT22;1026;51.460;7.252;2024-01-11T11:35:25;-3.50;93.00
2042;DHT22;1026;51.460;7.252;2024-01-11T11:37:59;-3.50;93.00
2042;DHT22;1026;51.460;7.252;2024-01-11T11:40:38;-3.40;93.00
2042;DHT22;1026;51.460;7.252;2024-01-11T11:43:13;-3.50;93.00
2042;DHT22;1026;51.460;7.252;2024-01-11T11:45:42;-3.40;93.00
2042;DHT22;1026;51.460;7.252;2024-01-11T11:48:50;-3.40;93.00
2042;DHT22;1026;51.460;7.252;2024-01-11T11:51:23;-3.40;93.00
2042;DHT22;1026;51.460;7.252;2024-01-11T11:53:54;-3.40;93.00
2042;DHT22;1026;51.460;7.252;2024-01-11T11:56:28;-3.40;93.00
2042;DHT22;1026;51.460;7.252;2024-01-11T11:58:56;-3.40;93.00
2042;DHT22;1026;51.460;7.252;2024-01-11T12:01:31;-3.40;93.00
2042;DHT22;1026;51.460;7.252;2024-01-11T12:04:08;-3.40;93.00
2042;DHT22;1026;51.460;7.252;2024-01-11T12:06:35;-3.40;93.10
2042;DHT22;1026;51.460;7.252;2024-01-11T12:09:08;-3.40;93.00
2042;DHT22;1026;51.460;7.252;2024-01-11T12:11:44;-3.40;93.10
2042;DHT22;1026;51.460;7.252;2024-01-11T12:14:32;-3.40;93.10
2042;DHT22;1026;51.460;7.252;2024-01-11T12:17:00;-3.30;93.10
2042;DHT22;1026;51.460;7.252;2024-01-11T12:19:34;-3.30;93.10
2042;DHT22;1026;51.460;7.252;2024-01-11T12:22:01;-3.30;93.50
2042;DHT22;1026;51.460;7.252;2024-01-11T12:24:35;-3.30;93.10
2042;DHT22;1026;51.460;7.252;2024-01-11T12:27:09;-3.30;93.10
2042;DHT22;1026;51.460;7.252;2024-01-11T12:29:43;-3.30;93.20
2042;DHT22;1026;51.460;7.252;2024-01-11T12:32:26;-3.30;93.20
2042;DHT22;1026;51.460;7.252;2024-01-11T12:34:54;-3.30;93.20
2042;DHT22;1026;51.460;7.252;2024-01-11T12:37:30;-3.30;93.20
2042;DHT22;1026;51.460;7.252;2024-01-11T12:40:03;-3.30;93.20
2042;DHT22;1026;51.460;7.252;2024-01-11T12:42:35;-3.30;93.20
2042;DHT22;1026;51.460;7.252;2024-01-11T12:45:08;-3.30;93.20
2042;DHT22;1026;51.460;7.252;2024-01-11T12:47:35;-3.20;93.20
2042;DHT22;1026;51.460;7.252;2024-01-11T12:50:12;-3.20;93.20
2042;DHT22;1026;51.460;7.252;2024-01-11T12:52:39;-3.20;93.20
2042;DHT22;1026;51.460;7.252;2024-01-11T12:55:08;-3.20;93.20
2042;DHT22;1026;51.460;7.252;2024-01-11T12:58:08;-3.20;93.20
2042;DHT22;1026;51.460;7.252;2024-01-11T13:00:39;-3.20;93.20
2042;DHT22;1026;51.460;7.252;2024-01-11T13:03:13;-3.20;93.20
2042;DHT22;1026;51.460;7.252;2024-01-11T13:05:40;-3.20;92.90
2042;DHT22;1026;51.460;7.252;2024-01-11T13:08:14;-3.00;92.30
2042;DHT22;1026;51.460;7.252;2024-01-11T13:10:48;-3.00;92.60
2042;DHT22;1026;51.460;7.252;2024-01-11T13:13:16;-3.00;92.80
2042;DHT22;1026;51.460;7.252;2024-01-11T13:15:51;-3.10;93.00
2042;DHT22;1026;51.460;7.252;2024-01-11T13:18:18;-3.10;93.10
2042;DHT22;1026;51.460;7.252;2024-01-11T13:20:46;-3.10;93.10
2042;DHT22;1026;51.460;7.252;2024-01-11T13:23:20;-3.10;93.20
2042;DHT22;1026;51.460;7.252;2024-01-11T13:26:01;-3.10;93.20
2042;DHT22;1026;51.460;7.252;2024-01-11T13:28:30;-3.10;93.20
2042;DHT22;1026;51.460;7.252;2024-01-11T13:31:03;-3.00;93.30
2042;DHT22;1026;51.460;7.252;2024-01-11T13:33:30;-3.10;93.30
2042;DHT22;1026;51.460;7.252;2024-01-11T13:35:58;-3.00;93.30
2042;DHT22;1026;51.460;7.252;2024-01-11T13:38:32;-3.00;93.30
2042;DHT22;1026;51.460;7.252;2024-01-11T13:41:05;-3.00;93.30
2042;DHT22;1026;51.460;7.252;2024-01-11T13:43:35;-3.00;93.30
2042;DHT22;1026;51.460;7.252;2024-01-11T13:46:02;-3.00;93.30
2042;DHT22;1026;51.460;7.252;2024-01-11T13:48:38;-3.00;93.30
2042;DHT22;1026;51.460;7.252;2024-01-11T13:51:06;-3.00;93.30
2042;DHT22;1026;51.460;7.252;2024-01-11T13:53:40;-3.00;93.40
2042;DHT22;1026;51.460;7.252;2024-01-11T13:56:07;-3.00;93.40
2042;DHT22;1026;51.460;7.252;2024-01-11T13:58:41;-3.00;93.40
2042;DHT22;1026;51.460;7.252;2024-01-11T14:01:15;-3.00;93.40
2042;DHT22;1026;51.460;7.252;2024-01-11T14:03:49;-3.00;93.40
2042;DHT22;1026;51.460;7.252;2024-01-11T14:06:16;-2.90;93.50
2042;DHT22;1026;51.460;7.252;2024-01-11T14:08:43;-2.90;93.50
2042;DHT22;1026;51.460;7.252;2024-01-11T14:11:17;-2.90;93.50
2042;DHT22;1026;51.460;7.252;2024-01-11T14:13:44;-2.90;93.50
2042;DHT22;1026;51.460;7.252;2024-01-11T14:16:11;-2.90;93.50
2042;DHT22;1026;51.460;7.252;2024-01-11T14:18:46;-2.90;93.50
2042;DHT22;1026;51.460;7.252;2024-01-11T14:21:19;-2.90;93.50
2042;DHT22;1026;51.460;7.252;2024-01-11T14:23:53;-2.90;93.60
2042;DHT22;1026;51.460;7.252;2024-01-11T14:26:33;-2.90;93.60
2042;DHT22;1026;51.460;7.252;2024-01-11T14:29:06;-2.90;93.60
2042;DHT22;1026;51.460;7.252;2024-01-11T14:31:33;-2.80;93.60
2042;DHT22;1026;51.460;7.252;2024-01-11T14:34:01;-2.80;93.60
2042;DHT22;1026;51.460;7.252;2024-01-11T14:36:35;-2.80;93.70
2042;DHT22;1026;51.460;7.252;2024-01-11T14:39:02;-2.80;94.00
2042;DHT22;1026;51.460;7.252;2024-01-11T14:41:31;-2.80;93.70
2042;DHT22;1026;51.460;7.252;2024-01-11T14:44:04;-2.80;93.70
2042;DHT22;1026;51.460;7.252;2024-01-11T14:46:31;-2.80;93.70
2042;DHT22;1026;51.460;7.252;2024-01-11T14:48:58;-2.80;93.70
2042;DHT22;1026;51.460;7.252;2024-01-11T14:51:33;-2.80;93.70
2042;DHT22;1026;51.460;7.252;2024-01-11T14:54:00;-2.80;93.70
2042;DHT22;1026;51.460;7.252;2024-01-11T14:56:28;-2.80;93.80
2042;DHT22;1026;51.460;7.252;2024-01-11T14:59:02;-2.80;93.80
2042;DHT22;1026;51.460;7.252;2024-01-11T15:01:35;-2.80;93.80
2042;DHT22;1026;51.460;7.252;2024-01-11T15:04:02;-2.80;93.80
2042;DHT22;1026;51.460;7.252;2024-01-11T15:06:32;-2.80;93.80
2042;DHT22;1026;51.460;7.252;2024-01-11T15:09:05;-2.80;93.80
2042;DHT22;1026;51.460;7.252;2024-01-11T15:11:39;-2.70;93.80
2042;DHT22;1026;51.460;7.252;2024-01-11T15:14:07;-2.70;93.80
2042;DHT22;1026;51.460;7.252;2024-01-11T15:16:42;-2.70;93.80
2042;DHT22;1026;51.460;7.252;2024-01-11T15:19:18;-2.70;93.90
2042;DHT22;1026;51.460;7.252;2024-01-11T15:21:46;-2.70;93.90
2042;DHT22;1026;51.460;7.252;2024-01-11T15:24:19;-2.70;93.90
2042;DHT22;1026;51.460;7.252;2024-01-11T15:26:55;-2.70;93.90
2042;DHT22;1026;51.460;7.252;2024-01-11T15:29:29;-2.70;93.90
2042;DHT22;1026;51.460;7.252;2024-01-11T15:32:03;-2.70;94.00
2042;DHT22;1026;51.460;7.252;2024-01-11T15:34:30;-2.70;94.00
2042;DHT22;1026;51.460;7.252;2024-01-11T15:36:57;-2.70;94.00
2042;DHT22;1026;51.460;7.252;2024-01-11T15:39:31;-2.70;94.00
2042;DHT22;1026;51.460;7.252;2024-01-11T15:42:00;-2.70;94.00
2042;DHT22;1026;51.460;7.252;2024-01-11T15:44:27;-2.70;94.00
2042;DHT22;1026;51.460;7.252;2024-01-11T15:47:01;-2.70;94.00
2042;DHT22;1026;51.460;7.252;2024-01-11T15:49:35;-2.60;94.10
2042;DHT22;1026;51.460;7.252;2024-01-11T15:52:02;-2.60;94.10
2042;DHT22;1026;51.460;7.252;2024-01-11T15:54:35;-2.60;94.20
2042;DHT22;1026;51.460;7.252;2024-01-11T15:57:02;-2.60;94.10
2042;DHT22;1026;51.460;7.252;2024-01-11T15:59:31;-2.60;94.10
2042;DHT22;1026;51.460;7.252;2024-01-11T16:02:04;-2.60;94.20
2042;DHT22;1026;51.460;7.252;2024-01-11T16:04:38;-2.60;94.20
2042;DHT22;1026;51.460;7.252;2024-01-11T16:07:19;-2.60;94.20
2042;DHT22;1026;51.460;7.252;2024-01-11T16:09:59;-2.60;94.30
2042;DHT22;1026;51.460;7.252;2024-01-11T16:12:32;-2.60;94.30
2042;DHT22;1026;51.460;7.252;2024-01-11T16:15:05;-2.50;94.30
2042;DHT22;1026;51.460;7.252;2024-01-11T16:17:39;-2.50;94.40
2042;DHT22;1026;51.460;7.252;2024-01-11T16:20:12;-2.50;94.40
2042;DHT22;1026;51.460;7.252;2024-01-11T16:22:39;-2.50;94.40
2042;DHT22;1026;51.460;7.252;2024-01-11T16:25:06;-2.50;94.40
2042;DHT22;1026;51.460;7.252;2024-01-11T16:27:40;-2.50;94.50
2042;DHT22;1026;51.460;7.252;2024-01-11T16:30:07;-2.50;94.50